sensor_id;sensor_type;location;lat;lon;timestamp;P1;durP1;ratioP1;P2;durP2;ratioP2
18917;SDS011;9591;52.742;13.650;2023-08-24T00:00:10;9.07;;;3.97;;
18917;SDS011;9591;52.742;13.650;2023-08-24T00:02:58;6.13;;;3.87;;
18917;SDS011;9591;52.742;13.650;2023-08-24T00:05:46;7.93;;;4.20;;
18917;SDS011;9591;52.742;13.650;2023-08-24T00:08:34;7.93;;;4.00;;
18917;SDS011;9591;52.742;13.650;2023-08-24T00:11:21;5.83;;;3.97;;
18917;SDS011;9591;52.742;13.650;2023-08-24T00:14:08;7.73;;;5.23;;
18917;SDS011;9591;52.742;13.650;2023-08-24T00:16:55;5.30;;;4.37;;
18917;SDS011;9591;52.742;13.650;2023-08-24T00:19:42;8.80;;;3.90;;
18917;SDS011;9591;52.742;13.650;2023-08-24T00:22:52;6.13;;;3.90;;
18917;SDS011;9591;52.742;13.650;2023-08-24T00:25:39;6.10;;;3.87;;
18917;SDS011;9591;52.742;13.650;2023-08-24T00:28:26;9.70;;;4.40;;
18917;SDS011;9591;52.742;13.650;2023-08-24T00:31:15;6.50;;;4.13;;
18917;SDS011;9591;52.742;13.650;2023-08-24T00:34:02;6.37;;;4.27;;
18917;SDS011;9591;52.742;13.650;2023-08-24T00:36:49;4.60;;;3.67;;
18917;SDS011;9591;52.742;13.650;2023-08-24T00:39:38;8.43;;;4.40;;
18917;SDS011;9591;52.742;13.650;2023-08-24T00:42:24;7.47;;;4.00;;
18917;SDS011;9591;52.742;13.650;2023-08-24T00:45:12;8.37;;;4.40;;
18917;SDS011;9591;52.742;13.650;2023-08-24T00:47:59;6.03;;;3.83;;
18917;SDS011;9591;52.742;13.650;2023-08-24T00:50:46;6.93;;;3.70;;
18917;SDS011;9591;52.742;13.650;2023-08-24T00:53:32;8.00;;;4.10;;
18917;SDS011;9591;52.742;13.650;2023-08-24T00:56:21;9.07;;;4.40;;
18917;SDS011;9591;52.742;13.650;2023-08-24T00:59:10;6.13;;;3.47;;
18917;SDS011;9591;52.742;13.650;2023-08-24T01:01:57;5.50;;;3.60;;
18917;SDS011;9591;52.742;13.650;2023-08-24T01:04:47;8.57;;;3.93;;
18917;SDS011;9591;52.742;13.650;2023-08-24T01:07:34;10.47;;;4.03;;
18917;SDS011;9591;52.742;13.650;2023-08-24T01:10:25;10.57;;;4.50;;
18917;SDS011;9591;52.742;13.650;2023-08-24T01:13:19;7.13;;;4.20;;
18917;SDS011;9591;52.742;13.650;2023-08-24T01:16:14;7.30;;;4.17;;
18917;SDS011;9591;52.742;13.650;2023-08-24T01:19:04;6.63;;;4.13;;
18917;SDS011;9591;52.742;13.650;2023-08-24T01:21:56;7.00;;;3.80;;
18917;SDS011;9591;52.742;13.650;2023-08-24T01:24:52;4.03;;;3.70;;
18917;SDS011;9591;52.742;13.650;2023-08-24T01:27:47;8.80;;;4.40;;
18917;SDS011;9591;52.742;13.650;2023-08-24T01:30:36;6.83;;;4.30;;
18917;SDS011;9591;52.742;13.650;2023-08-24T01:33:23;6.37;;;4.00;;
18917;SDS011;9591;52.742;13.650;2023-08-24T01:36:12;7.37;;;4.10;;
18917;SDS011;9591;52.742;13.650;2023-08-24T01:39:02;7.50;;;3.43;;
18917;SDS011;9591;52.742;13.650;2023-08-24T01:41:56;5.80;;;3.77;;
18917;SDS011;9591;52.742;13.650;2023-08-24T01:44:50;4.93;;;3.80;;
18917;SDS011;9591;52.742;13.650;2023-08-24T01:47:45;7.10;;;3.90;;
18917;SDS011;9591;52.742;13.650;2023-08-24T01:50:35;5.23;;;3.73;;
18917;SDS011;9591;52.742;13.650;2023-08-24T01:53:23;6.30;;;3.47;;
18917;SDS011;9591;52.742;13.650;2023-08-24T01:56:09;5.40;;;3.97;;
18917;SDS011;9591;52.742;13.650;2023-08-24T01:58:57;4.93;;;3.67;;
18917;SDS011;9591;52.742;13.650;2023-08-24T02:01:45;3.57;;;3.27;;
18917;SDS011;9591;52.742;13.650;2023-08-24T02:04:32;7.07;;;3.40;;
18917;SDS011;9591;52.742;13.650;2023-08-24T02:07:20;4.10;;;3.63;;
18917;SDS011;9591;52.742;13.650;2023-08-24T02:10:07;4.63;;;3.57;;
18917;SDS011;9591;52.742;13.650;2023-08-24T02:12:53;5.17;;;3.80;;
18917;SDS011;9591;52.742;13.650;2023-08-24T02:15:40;4.73;;;3.80;;
18917;SDS011;9591;52.742;13.650;2023-08-24T02:18:29;4.50;;;3.37;;
18917;SDS011;9591;52.742;13.650;2023-08-24T02:21:16;6.40;;;3.70;;
18917;SDS011;9591;52.742;13.650;2023-08-24T02:24:03;5.43;;;3.47;;
18917;SDS011;9591;52.742;13.650;2023-08-24T02:26:49;4.20;;;3.80;;
18917;SDS011;9591;52.742;13.650;2023-08-24T02:29:36;7.27;;;3.73;;
18917;SDS011;9591;52.742;13.650;2023-08-24T02:32:24;4.70;;;3.60;;
18917;SDS011;9591;52.742;13.650;2023-08-24T02:35:12;7.63;;;3.73;;
18917;SDS011;9591;52.742;13.650;2023-08-24T02:37:59;9.17;;;3.53;;
18917;SDS011;9591;52.742;13.650;2023-08-24T02:40:46;7.77;;;3.33;;
18917;SDS011;9591;52.742;13.650;2023-08-24T02:43:33;6.53;;;3.70;;
18917;SDS011;9591;52.742;13.650;2023-08-24T02:46:21;4.83;;;3.30;;
18917;SDS011;9591;52.742;13.650;2023-08-24T02:49:08;5.47;;;3.87;;
18917;SDS011;9591;52.742;13.650;2023-08-24T02:51:56;4.17;;;3.60;;
18917;SDS011;9591;52.742;13.650;2023-08-24T02:54:44;3.67;;;3.30;;
18917;SDS011;9591;52.742;13.650;2023-08-24T02:57:31;4.37;;;3.53;;
18917;SDS011;9591;52.742;13.650;2023-08-24T03:00:18;7.40;;;3.60;;
18917;SDS011;9591;52.742;13.650;2023-08-24T03:03:05;4.37;;;3.50;;
18917;SDS011;9591;52.742;13.650;2023-08-24T03:05:53;5.93;;;3.87;;
18917;SDS011;9591;52.742;13.650;2023-08-24T03:08:47;5.53;;;3.10;;
18917;SDS011;9591;52.742;13.650;2023-08-24T03:11:34;6.70;;;4.30;;
18917;SDS011;9591;52.742;13.650;2023-08-24T03:14:20;6.07;;;3.50;;
18917;SDS011;9591;52.742;13.650;2023-08-24T03:17:07;8.17;;;4.17;;
18917;SDS011;9591;52.742;13.650;2023-08-24T03:19:54;7.23;;;3.90;;
18917;SDS011;9591;52.742;13.650;2023-08-24T03:22:41;8.50;;;4.00;;
18917;SDS011;9591;52.742;13.650;2023-08-24T03:25:30;4.73;;;3.60;;
18917;SDS011;9591;52.742;13.650;2023-08-24T03:28:17;4.70;;;3.40;;
18917;SDS011;9591;52.742;13.650;2023-08-24T03:31:06;4.10;;;3.60;;
18917;SDS011;9591;52.742;13.650;2023-08-24T03:33:53;8.97;;;3.70;;
18917;SDS011;9591;52.742;13.650;2023-08-24T03:36:40;10.87;;;3.70;;
18917;SDS011;9591;52.742;13.650;2023-08-24T03:39:27;4.73;;;3.37;;
18917;SDS011;9591;52.742;13.650;2023-08-24T03:42:15;6.47;;;3.50;;
18917;SDS011;9591;52.742;13.650;2023-08-24T03:45:02;4.47;;;3.70;;
18917;SDS011;9591;52.742;13.650;2023-08-24T03:47:49;7.50;;;3.77;;
18917;SDS011;9591;52.742;13.650;2023-08-24T03:50:37;6.03;;;3.60;;
18917;SDS011;9591;52.742;13.650;2023-08-24T03:53:24;5.17;;;3.17;;
18917;SDS011;9591;52.742;13.650;2023-08-24T03:56:11;4.80;;;3.43;;
18917;SDS011;9591;52.742;13.650;2023-08-24T03:59:00;3.60;;;3.30;;
18917;SDS011;9591;52.742;13.650;2023-08-24T04:01:47;3.73;;;3.33;;
18917;SDS011;9591;52.742;13.650;2023-08-24T04:04:34;3.67;;;3.00;;
18917;SDS011;9591;52.742;13.650;2023-08-24T04:07:21;4.70;;;3.33;;
18917;SDS011;9591;52.742;13.650;2023-08-24T04:10:09;5.40;;;3.37;;
18917;SDS011;9591;52.742;13.650;2023-08-24T04:12:56;4.67;;;3.27;;
18917;SDS011;9591;52.742;13.650;2023-08-24T04:15:44;4.80;;;3.17;;
18917;SDS011;9591;52.742;13.650;2023-08-24T04:18:31;5.93;;;2.97;;
18917;SDS011;9591;52.742;13.650;2023-08-24T04:21:18;3.43;;;3.13;;
18917;SDS011;9591;52.742;13.650;2023-08-24T04:24:06;3.17;;;2.87;;
18917;SDS011;9591;52.742;13.650;2023-08-24T04:27:01;5.57;;;2.60;;
18917;SDS011;9591;52.742;13.650;2023-08-24T04:29:48;6.90;;;3.33;;
18917;SDS011;9591;52.742;13.650;2023-08-24T04:32:36;7.27;;;3.00;;
18917;SDS011;9591;52.742;13.650;2023-08-24T04:35:24;7.23;;;2.70;;
18917;SDS011;9591;52.742;13.650;2023-08-24T04:38:11;4.60;;;2.80;;
18917;SDS011;9591;52.742;13.650;2023-08-24T04:40:58;4.87;;;2.87;;
18917;SDS011;9591;52.742;13.650;2023-08-24T04:43:45;3.00;;;2.70;;
18917;SDS011;9591;52.742;13.650;2023-08-24T04:46:32;4.17;;;2.80;;
18917;SDS011;9591;52.742;13.650;2023-08-24T04:49:20;7.23;;;3.10;;
18917;SDS011;9591;52.742;13.650;2023-08-24T04:52:07;6.53;;;2.97;;
18917;SDS011;9591;52.742;13.650;2023-08-24T04:54:53;6.57;;;3.20;;
18917;SDS011;9591;52.742;13.650;2023-08-24T04:57:40;5.00;;;3.00;;
18917;SDS011;9591;52.742;13.650;2023-08-24T05:00:29;4.47;;;3.30;;
18917;SDS011;9591;52.742;13.650;2023-08-24T05:03:18;3.50;;;2.97;;
18917;SDS011;9591;52.742;13.650;2023-08-24T05:09:10;7.37;;;3.73;;
18917;SDS011;9591;52.742;13.650;2023-08-24T05:11:58;4.50;;;3.10;;
18917;SDS011;9591;52.742;13.650;2023-08-24T05:14:46;4.30;;;3.27;;
18917;SDS011;9591;52.742;13.650;2023-08-24T05:17:35;4.40;;;3.40;;
18917;SDS011;9591;52.742;13.650;2023-08-24T05:20:23;5.40;;;3.63;;
18917;SDS011;9591;52.742;13.650;2023-08-24T05:23:13;4.77;;;3.57;;
18917;SDS011;9591;52.742;13.650;2023-08-24T05:26:01;5.40;;;3.47;;
18917;SDS011;9591;52.742;13.650;2023-08-24T05:28:49;8.30;;;3.90;;
18917;SDS011;9591;52.742;13.650;2023-08-24T05:31:37;7.53;;;3.70;;
18917;SDS011;9591;52.742;13.650;2023-08-24T05:34:24;5.87;;;3.33;;
18917;SDS011;9591;52.742;13.650;2023-08-24T05:37:13;7.43;;;3.07;;
18917;SDS011;9591;52.742;13.650;2023-08-24T05:40:06;8.03;;;3.60;;
18917;SDS011;9591;52.742;13.650;2023-08-24T05:42:57;5.93;;;3.27;;
18917;SDS011;9591;52.742;13.650;2023-08-24T05:45:45;12.80;;;3.80;;
18917;SDS011;9591;52.742;13.650;2023-08-24T05:48:32;6.03;;;3.70;;
18917;SDS011;9591;52.742;13.650;2023-08-24T05:51:19;11.10;;;4.30;;
18917;SDS011;9591;52.742;13.650;2023-08-24T05:54:06;10.80;;;3.83;;
18917;SDS011;9591;52.742;13.650;2023-08-24T05:56:54;11.90;;;4.10;;
18917;SDS011;9591;52.742;13.650;2023-08-24T05:59:45;9.67;;;4.10;;
18917;SDS011;9591;52.742;13.650;2023-08-24T06:02:32;8.07;;;3.87;;
18917;SDS011;9591;52.742;13.650;2023-08-24T06:05:19;12.73;;;4.23;;
18917;SDS011;9591;52.742;13.650;2023-08-24T06:08:21;7.93;;;3.70;;
18917;SDS011;9591;52.742;13.650;2023-08-24T06:11:08;10.20;;;4.30;;
18917;SDS011;9591;52.742;13.650;2023-08-24T06:13:56;9.53;;;3.83;;
18917;SDS011;9591;52.742;13.650;2023-08-24T06:16:43;8.03;;;4.20;;
18917;SDS011;9591;52.742;13.650;2023-08-24T06:19:30;9.20;;;4.00;;
18917;SDS011;9591;52.742;13.650;2023-08-24T06:22:17;6.17;;;3.83;;
18917;SDS011;9591;52.742;13.650;2023-08-24T06:25:04;4.67;;;3.97;;
18917;SDS011;9591;52.742;13.650;2023-08-24T06:27:53;3.90;;;3.47;;
18917;SDS011;9591;52.742;13.650;2023-08-24T06:30:42;3.40;;;3.10;;
18917;SDS011;9591;52.742;13.650;2023-08-24T06:33:32;5.67;;;3.47;;
18917;SDS011;9591;52.742;13.650;2023-08-24T06:36:19;6.83;;;4.20;;
18917;SDS011;9591;52.742;13.650;2023-08-24T06:39:06;4.83;;;3.30;;
18917;SDS011;9591;52.742;13.650;2023-08-24T06:41:53;6.47;;;3.57;;
18917;SDS011;9591;52.742;13.650;2023-08-24T06:44:43;5.40;;;3.60;;
18917;SDS011;9591;52.742;13.650;2023-08-24T06:47:31;11.67;;;3.30;;
18917;SDS011;9591;52.742;13.650;2023-08-24T06:50:18;5.37;;;3.23;;
18917;SDS011;9591;52.742;13.650;2023-08-24T06:53:05;6.57;;;3.10;;
18917;SDS011;9591;52.742;13.650;2023-08-24T06:55:53;7.33;;;3.47;;
18917;SDS011;9591;52.742;13.650;2023-08-24T06:58:41;5.50;;;3.23;;
18917;SDS011;9591;52.742;13.650;2023-08-24T07:01:28;5.50;;;2.77;;
18917;SDS011;9591;52.742;13.650;2023-08-24T07:04:18;4.60;;;2.97;;
18917;SDS011;9591;52.742;13.650;2023-08-24T07:07:05;4.53;;;3.10;;
18917;SDS011;9591;52.742;13.650;2023-08-24T07:09:52;5.70;;;2.70;;
18917;SDS011;9591;52.742;13.650;2023-08-24T07:12:39;5.83;;;2.70;;
18917;SDS011;9591;52.742;13.650;2023-08-24T07:15:28;6.80;;;2.70;;
18917;SDS011;9591;52.742;13.650;2023-08-24T07:18:22;6.33;;;3.00;;
18917;SDS011;9591;52.742;13.650;2023-08-24T07:21:14;5.80;;;3.10;;
18917;SDS011;9591;52.742;13.650;2023-08-24T07:24:02;6.03;;;2.73;;
18917;SDS011;9591;52.742;13.650;2023-08-24T07:26:49;2.93;;;2.60;;
18917;SDS011;9591;52.742;13.650;2023-08-24T07:29:36;9.37;;;2.73;;
18917;SDS011;9591;52.742;13.650;2023-08-24T07:32:23;6.40;;;3.40;;
18917;SDS011;9591;52.742;13.650;2023-08-24T07:35:10;4.73;;;2.90;;
18917;SDS011;9591;52.742;13.650;2023-08-24T07:37:59;4.67;;;2.50;;
18917;SDS011;9591;52.742;13.650;2023-08-24T07:40:48;6.73;;;2.83;;
18917;SDS011;9591;52.742;13.650;2023-08-24T07:43:35;5.53;;;2.93;;
18917;SDS011;9591;52.742;13.650;2023-08-24T07:46:21;6.33;;;2.80;;
18917;SDS011;9591;52.742;13.650;2023-08-24T07:49:08;4.80;;;2.47;;
18917;SDS011;9591;52.742;13.650;2023-08-24T07:51:55;7.03;;;2.90;;
18917;SDS011;9591;52.742;13.650;2023-08-24T07:54:44;9.63;;;3.03;;
18917;SDS011;9591;52.742;13.650;2023-08-24T07:57:30;5.83;;;3.00;;
18917;SDS011;9591;52.742;13.650;2023-08-24T08:00:17;4.90;;;2.80;;
18917;SDS011;9591;52.742;13.650;2023-08-24T08:03:05;7.17;;;2.70;;
18917;SDS011;9591;52.742;13.650;2023-08-24T08:05:52;6.10;;;2.70;;
18917;SDS011;9591;52.742;13.650;2023-08-24T08:08:40;6.70;;;3.00;;
18917;SDS011;9591;52.742;13.650;2023-08-24T08:11:28;5.00;;;2.70;;
18917;SDS011;9591;52.742;13.650;2023-08-24T08:14:15;4.97;;;2.63;;
18917;SDS011;9591;52.742;13.650;2023-08-24T08:17:02;6.70;;;2.50;;
18917;SDS011;9591;52.742;13.650;2023-08-24T08:19:53;7.53;;;2.70;;
18917;SDS011;9591;52.742;13.650;2023-08-24T08:22:40;2.93;;;2.40;;
18917;SDS011;9591;52.742;13.650;2023-08-24T08:25:28;5.23;;;3.07;;
18917;SDS011;9591;52.742;13.650;2023-08-24T08:28:21;4.03;;;2.70;;
18917;SDS011;9591;52.742;13.650;2023-08-24T08:31:09;5.30;;;2.63;;
18917;SDS011;9591;52.742;13.650;2023-08-24T08:33:56;4.53;;;3.17;;
18917;SDS011;9591;52.742;13.650;2023-08-24T08:36:43;4.37;;;2.80;;
18917;SDS011;9591;52.742;13.650;2023-08-24T08:39:47;4.60;;;2.83;;
18917;SDS011;9591;52.742;13.650;2023-08-24T08:42:33;2.83;;;2.43;;
18917;SDS011;9591;52.742;13.650;2023-08-24T08:45:24;3.87;;;2.73;;
18917;SDS011;9591;52.742;13.650;2023-08-24T08:48:11;2.93;;;2.60;;
18917;SDS011;9591;52.742;13.650;2023-08-24T08:50:58;6.37;;;3.23;;
18917;SDS011;9591;52.742;13.650;2023-08-24T08:53:47;3.27;;;2.27;;
18917;SDS011;9591;52.742;13.650;2023-08-24T08:56:34;4.23;;;2.70;;
18917;SDS011;9591;52.742;13.650;2023-08-24T08:59:21;2.37;;;2.17;;
18917;SDS011;9591;52.742;13.650;2023-08-24T09:02:13;7.20;;;2.77;;
18917;SDS011;9591;52.742;13.650;2023-08-24T09:05:03;4.70;;;2.50;;
18917;SDS011;9591;52.742;13.650;2023-08-24T09:07:50;2.83;;;2.50;;
18917;SDS011;9591;52.742;13.650;2023-08-24T09:10:37;6.20;;;3.13;;
18917;SDS011;9591;52.742;13.650;2023-08-24T09:13:24;6.10;;;2.60;;
18917;SDS011;9591;52.742;13.650;2023-08-24T09:16:12;3.87;;;2.20;;
18917;SDS011;9591;52.742;13.650;2023-08-24T09:19:02;5.83;;;2.87;;
18917;SDS011;9591;52.742;13.650;2023-08-24T09:21:53;3.53;;;2.53;;
18917;SDS011;9591;52.742;13.650;2023-08-24T09:24:43;8.57;;;2.57;;
18917;SDS011;9591;52.742;13.650;2023-08-24T09:27:30;5.60;;;2.67;;
18917;SDS011;9591;52.742;13.650;2023-08-24T09:30:18;3.90;;;2.40;;
18917;SDS011;9591;52.742;13.650;2023-08-24T09:33:08;5.37;;;2.30;;
18917;SDS011;9591;52.742;13.650;2023-08-24T09:35:58;4.70;;;2.60;;
18917;SDS011;9591;52.742;13.650;2023-08-24T09:38:48;5.77;;;2.50;;
18917;SDS011;9591;52.742;13.650;2023-08-24T09:41:38;9.27;;;2.87;;
18917;SDS011;9591;52.742;13.650;2023-08-24T09:44:26;2.70;;;2.20;;
18917;SDS011;9591;52.742;13.650;2023-08-24T09:47:14;4.83;;;2.13;;
18917;SDS011;9591;52.742;13.650;2023-08-24T09:50:01;6.57;;;2.30;;
18917;SDS011;9591;52.742;13.650;2023-08-24T09:52:50;4.77;;;2.00;;
18917;SDS011;9591;52.742;13.650;2023-08-24T09:55:44;6.40;;;2.40;;
18917;SDS011;9591;52.742;13.650;2023-08-24T09:58:34;2.50;;;1.90;;
18917;SDS011;9591;52.742;13.650;2023-08-24T10:01:21;4.87;;;2.20;;
18917;SDS011;9591;52.742;13.650;2023-08-24T10:04:10;3.57;;;2.10;;
18917;SDS011;9591;52.742;13.650;2023-08-24T10:07:02;2.77;;;2.33;;
18917;SDS011;9591;52.742;13.650;2023-08-24T10:10:09;2.53;;;2.00;;
18917;SDS011;9591;52.742;13.650;2023-08-24T10:12:59;5.60;;;1.97;;
18917;SDS011;9591;52.742;13.650;2023-08-24T10:15:53;2.33;;;2.13;;
18917;SDS011;9591;52.742;13.650;2023-08-24T10:18:41;3.47;;;2.00;;
18917;SDS011;9591;52.742;13.650;2023-08-24T10:21:28;8.87;;;1.90;;
18917;SDS011;9591;52.742;13.650;2023-08-24T10:24:15;2.40;;;2.10;;
18917;SDS011;9591;52.742;13.650;2023-08-24T10:27:04;3.63;;;2.03;;
18917;SDS011;9591;52.742;13.650;2023-08-24T10:29:55;4.13;;;2.10;;
18917;SDS011;9591;52.742;13.650;2023-08-24T10:32:42;5.77;;;2.43;;
18917;SDS011;9591;52.742;13.650;2023-08-24T10:35:31;3.97;;;2.27;;
18917;SDS011;9591;52.742;13.650;2023-08-24T10:38:23;2.03;;;1.90;;
18917;SDS011;9591;52.742;13.650;2023-08-24T10:41:11;4.00;;;1.90;;
18917;SDS011;9591;52.742;13.650;2023-08-24T10:44:05;6.10;;;2.40;;
18917;SDS011;9591;52.742;13.650;2023-08-24T10:47:07;3.07;;;1.83;;
18917;SDS011;9591;52.742;13.650;2023-08-24T10:49:57;6.77;;;1.80;;
18917;SDS011;9591;52.742;13.650;2023-08-24T10:52:45;2.47;;;2.00;;
18917;SDS011;9591;52.742;13.650;2023-08-24T10:55:32;3.57;;;2.00;;
18917;SDS011;9591;52.742;13.650;2023-08-24T10:58:21;2.47;;;2.13;;
18917;SDS011;9591;52.742;13.650;2023-08-24T11:01:15;6.57;;;2.03;;
18917;SDS011;9591;52.742;13.650;2023-08-24T11:04:04;16.33;;;2.63;;
18917;SDS011;9591;52.742;13.650;2023-08-24T11:06:52;5.30;;;2.20;;
18917;SDS011;9591;52.742;13.650;2023-08-24T11:09:46;2.43;;;2.10;;
18917;SDS011;9591;52.742;13.650;2023-08-24T11:15:59;4.77;;;1.93;;
18917;SDS011;9591;52.742;13.650;2023-08-24T11:18:52;2.73;;;2.00;;
18917;SDS011;9591;52.742;13.650;2023-08-24T11:21:39;2.47;;;2.03;;
18917;SDS011;9591;52.742;13.650;2023-08-24T11:24:27;5.90;;;1.97;;
18917;SDS011;9591;52.742;13.650;2023-08-24T11:27:14;10.57;;;2.30;;
18917;SDS011;9591;52.742;13.650;2023-08-24T11:30:02;2.23;;;2.03;;
18917;SDS011;9591;52.742;13.650;2023-08-24T11:32:51;3.20;;;2.10;;
18917;SDS011;9591;52.742;13.650;2023-08-24T11:35:41;2.73;;;1.97;;
18917;SDS011;9591;52.742;13.650;2023-08-24T11:38:35;2.67;;;1.90;;
18917;SDS011;9591;52.742;13.650;2023-08-24T11:41:23;3.63;;;1.87;;
18917;SDS011;9591;52.742;13.650;2023-08-24T11:44:11;9.83;;;2.23;;
18917;SDS011;9591;52.742;13.650;2023-08-24T11:47:12;2.23;;;2.03;;
18917;SDS011;9591;52.742;13.650;2023-08-24T11:49:59;2.90;;;1.90;;
18917;SDS011;9591;52.742;13.650;2023-08-24T11:52:47;7.57;;;2.20;;
18917;SDS011;9591;52.742;13.650;2023-08-24T11:55:39;1.73;;;1.60;;
18917;SDS011;9591;52.742;13.650;2023-08-24T11:58:47;4.00;;;1.93;;
18917;SDS011;9591;52.742;13.650;2023-08-24T12:01:36;3.10;;;2.07;;
18917;SDS011;9591;52.742;13.650;2023-08-24T12:04:24;2.80;;;1.77;;
18917;SDS011;9591;52.742;13.650;2023-08-24T12:07:10;5.03;;;1.93;;
18917;SDS011;9591;52.742;13.650;2023-08-24T12:10:01;3.57;;;1.93;;
18917;SDS011;9591;52.742;13.650;2023-08-24T12:12:48;2.27;;;1.97;;
18917;SDS011;9591;52.742;13.650;2023-08-24T12:15:36;13.13;;;2.63;;
18917;SDS011;9591;52.742;13.650;2023-08-24T12:18:24;5.80;;;2.30;;
18917;SDS011;9591;52.742;13.650;2023-08-24T12:21:11;4.17;;;1.93;;
18917;SDS011;9591;52.742;13.650;2023-08-24T12:23:59;3.13;;;1.90;;
18917;SDS011;9591;52.742;13.650;2023-08-24T12:26:56;2.30;;;2.00;;
18917;SDS011;9591;52.742;13.650;2023-08-24T12:29:44;4.17;;;2.30;;
18917;SDS011;9591;52.742;13.650;2023-08-24T12:32:41;2.70;;;1.80;;
18917;SDS011;9591;52.742;13.650;2023-08-24T12:35:30;2.83;;;1.90;;
18917;SDS011;9591;52.742;13.650;2023-08-24T12:38:17;4.80;;;2.07;;
18917;SDS011;9591;52.742;13.650;2023-08-24T12:41:04;5.33;;;2.60;;
18917;SDS011;9591;52.742;13.650;2023-08-24T12:43:52;2.40;;;2.03;;
18917;SDS011;9591;52.742;13.650;2023-08-24T12:46:39;4.57;;;2.00;;
18917;SDS011;9591;52.742;13.650;2023-08-24T12:49:26;3.53;;;2.50;;
18917;SDS011;9591;52.742;13.650;2023-08-24T12:52:13;6.53;;;2.23;;
18917;SDS011;9591;52.742;13.650;2023-08-24T12:55:01;4.37;;;2.20;;
18917;SDS011;9591;52.742;13.650;2023-08-24T12:57:50;2.80;;;2.17;;
18917;SDS011;9591;52.742;13.650;2023-08-24T13:00:39;8.53;;;2.47;;
18917;SDS011;9591;52.742;13.650;2023-08-24T13:03:26;68.17;;;5.67;;
18917;SDS011;9591;52.742;13.650;2023-08-24T13:06:13;7.40;;;2.60;;
18917;SDS011;9591;52.742;13.650;2023-08-24T13:09:08;8.40;;;2.67;;
18917;SDS011;9591;52.742;13.650;2023-08-24T13:11:57;5.53;;;3.40;;
18917;SDS011;9591;52.742;13.650;2023-08-24T13:14:44;2.40;;;2.20;;
18917;SDS011;9591;52.742;13.650;2023-08-24T13:17:32;2.30;;;2.00;;
18917;SDS011;9591;52.742;13.650;2023-08-24T13:20:19;4.67;;;2.70;;
18917;SDS011;9591;52.742;13.650;2023-08-24T13:23:06;2.73;;;2.30;;
18917;SDS011;9591;52.742;13.650;2023-08-24T13:25:53;10.80;;;2.53;;
18917;SDS011;9591;52.742;13.650;2023-08-24T13:28:44;5.23;;;2.53;;
18917;SDS011;9591;52.742;13.650;2023-08-24T13:31:30;3.00;;;1.80;;
18917;SDS011;9591;52.742;13.650;2023-08-24T13:34:19;3.83;;;2.20;;
18917;SDS011;9591;52.742;13.650;2023-08-24T13:37:06;2.80;;;2.40;;
18917;SDS011;9591;52.742;13.650;2023-08-24T13:39:53;3.10;;;2.50;;
18917;SDS011;9591;52.742;13.650;2023-08-24T13:42:40;4.70;;;2.40;;
18917;SDS011;9591;52.742;13.650;2023-08-24T13:45:26;92.07;;;6.80;;
18917;SDS011;9591;52.742;13.650;2023-08-24T13:48:16;2.43;;;2.23;;
18917;SDS011;9591;52.742;13.650;2023-08-24T13:51:04;5.40;;;2.40;;
18917;SDS011;9591;52.742;13.650;2023-08-24T13:53:51;3.73;;;2.70;;
18917;SDS011;9591;52.742;13.650;2023-08-24T13:56:38;3.23;;;2.47;;
18917;SDS011;9591;52.742;13.650;2023-08-24T13:59:24;3.33;;;2.70;;
18917;SDS011;9591;52.742;13.650;2023-08-24T14:02:11;3.00;;;2.80;;
18917;SDS011;9591;52.742;13.650;2023-08-24T14:04:58;3.77;;;2.57;;
18917;SDS011;9591;52.742;13.650;2023-08-24T14:07:47;2.90;;;2.70;;
18917;SDS011;9591;52.742;13.650;2023-08-24T14:10:34;4.30;;;2.60;;
18917;SDS011;9591;52.742;13.650;2023-08-24T14:13:21;6.13;;;2.70;;
18917;SDS011;9591;52.742;13.650;2023-08-24T14:16:10;4.03;;;3.00;;
18917;SDS011;9591;52.742;13.650;2023-08-24T14:18:57;4.07;;;3.20;;
18917;SDS011;9591;52.742;13.650;2023-08-24T14:21:44;7.40;;;3.03;;
18917;SDS011;9591;52.742;13.650;2023-08-24T14:24:33;27.33;;;4.27;;
18917;SDS011;9591;52.742;13.650;2023-08-24T14:27:20;2.67;;;2.47;;
18917;SDS011;9591;52.742;13.650;2023-08-24T14:30:07;4.57;;;3.10;;
18917;SDS011;9591;52.742;13.650;2023-08-24T14:32:54;3.63;;;2.50;;
18917;SDS011;9591;52.742;13.650;2023-08-24T14:35:41;3.60;;;2.73;;
18917;SDS011;9591;52.742;13.650;2023-08-24T14:38:37;3.50;;;2.77;;
18917;SDS011;9591;52.742;13.650;2023-08-24T14:41:26;3.90;;;2.70;;
18917;SDS011;9591;52.742;13.650;2023-08-24T14:44:15;5.43;;;3.00;;
18917;SDS011;9591;52.742;13.650;2023-08-24T14:47:01;3.10;;;2.80;;
18917;SDS011;9591;52.742;13.650;2023-08-24T14:49:48;5.57;;;3.00;;
18917;SDS011;9591;52.742;13.650;2023-08-24T14:52:35;4.10;;;3.27;;
18917;SDS011;9591;52.742;13.650;2023-08-24T14:55:23;3.83;;;3.17;;
18917;SDS011;9591;52.742;13.650;2023-08-24T14:58:11;3.27;;;2.73;;
18917;SDS011;9591;52.742;13.650;2023-08-24T15:00:58;3.80;;;3.20;;
18917;SDS011;9591;52.742;13.650;2023-08-24T15:03:45;5.40;;;3.20;;
18917;SDS011;9591;52.742;13.650;2023-08-24T15:06:32;5.30;;;2.90;;
18917;SDS011;9591;52.742;13.650;2023-08-24T15:09:19;7.23;;;3.10;;
18917;SDS011;9591;52.742;13.650;2023-08-24T15:12:06;4.17;;;2.90;;
18917;SDS011;9591;52.742;13.650;2023-08-24T15:14:57;4.47;;;3.10;;
18917;SDS011;9591;52.742;13.650;2023-08-24T15:17:45;3.87;;;3.37;;
18917;SDS011;9591;52.742;13.650;2023-08-24T15:20:35;5.63;;;3.27;;
18917;SDS011;9591;52.742;13.650;2023-08-24T15:23:24;4.30;;;3.27;;
18917;SDS011;9591;52.742;13.650;2023-08-24T15:26:11;6.63;;;3.10;;
18917;SDS011;9591;52.742;13.650;2023-08-24T15:29:11;7.43;;;3.40;;
18917;SDS011;9591;52.742;13.650;2023-08-24T15:32:02;5.53;;;3.50;;
18917;SDS011;9591;52.742;13.650;2023-08-24T15:34:49;8.43;;;3.47;;
18917;SDS011;9591;52.742;13.650;2023-08-24T15:37:38;7.60;;;3.67;;
18917;SDS011;9591;52.742;13.650;2023-08-24T15:40:26;4.23;;;3.57;;
18917;SDS011;9591;52.742;13.650;2023-08-24T15:43:16;7.53;;;3.80;;
18917;SDS011;9591;52.742;13.650;2023-08-24T15:46:03;4.00;;;3.63;;
18917;SDS011;9591;52.742;13.650;2023-08-24T15:48:51;5.77;;;3.80;;
18917;SDS011;9591;52.742;13.650;2023-08-24T15:51:41;9.17;;;3.57;;
18917;SDS011;9591;52.742;13.650;2023-08-24T15:54:28;4.83;;;3.40;;
18917;SDS011;9591;52.742;13.650;2023-08-24T15:57:15;9.87;;;3.60;;
18917;SDS011;9591;52.742;13.650;2023-08-24T16:00:02;8.73;;;3.60;;
18917;SDS011;9591;52.742;13.650;2023-08-24T16:02:55;11.73;;;3.37;;
18917;SDS011;9591;52.742;13.650;2023-08-24T16:05:44;4.37;;;3.57;;
18917;SDS011;9591;52.742;13.650;2023-08-24T16:08:31;5.00;;;3.80;;
18917;SDS011;9591;52.742;13.650;2023-08-24T16:11:18;5.17;;;3.60;;
18917;SDS011;9591;52.742;13.650;2023-08-24T16:14:04;4.73;;;3.40;;
18917;SDS011;9591;52.742;13.650;2023-08-24T16:16:51;6.80;;;3.50;;
18917;SDS011;9591;52.742;13.650;2023-08-24T16:19:39;5.50;;;3.47;;
18917;SDS011;9591;52.742;13.650;2023-08-24T16:22:28;12.00;;;3.90;;
18917;SDS011;9591;52.742;13.650;2023-08-24T16:25:15;8.23;;;3.77;;
18917;SDS011;9591;52.742;13.650;2023-08-24T16:28:02;7.93;;;3.80;;
18917;SDS011;9591;52.742;13.650;2023-08-24T16:30:49;3.80;;;3.50;;
18917;SDS011;9591;52.742;13.650;2023-08-24T16:33:37;7.40;;;3.40;;
18917;SDS011;9591;52.742;13.650;2023-08-24T16:36:25;7.57;;;3.37;;
18917;SDS011;9591;52.742;13.650;2023-08-24T16:39:13;5.70;;;3.40;;
18917;SDS011;9591;52.742;13.650;2023-08-24T16:42:00;9.40;;;3.63;;
18917;SDS011;9591;52.742;13.650;2023-08-24T16:44:48;3.73;;;3.30;;
18917;SDS011;9591;52.742;13.650;2023-08-24T16:47:35;6.27;;;3.30;;
18917;SDS011;9591;52.742;13.650;2023-08-24T16:50:22;4.77;;;3.50;;
18917;SDS011;9591;52.742;13.650;2023-08-24T16:53:09;8.83;;;4.10;;
18917;SDS011;9591;52.742;13.650;2023-08-24T16:55:58;6.87;;;3.73;;
18917;SDS011;9591;52.742;13.650;2023-08-24T16:58:45;6.87;;;3.93;;
18917;SDS011;9591;52.742;13.650;2023-08-24T17:01:32;5.17;;;3.50;;